Musette — WDB9800 — position and weather

sailwx.info

Track history (hours):
 
Tides and Currents Weather Stations Pressure Air Temp Water Temp Dewpoint Dewpoint Depression Visibility Wind Speed Wind Dir Waves Ship Positions

Musette

Owner: Carfi Enterprises, Wellington, FL. More information available from US FCC via Universal Licensing System and Coast Guard Vessel Documentation Center.

Last reported at 2018-Apr-22 00:59 UTC. Time now 2018-Apr-25 02:53 UTC.
Position N 26°07' W 080°08'.

; draft 2 m.

Type: Ship. MMSI: 366983050.

Date/timePositionNaut miles runAvg speedWind from/ knotsBaromVisibWave heightAir tempDewpointWater temp
2018-Apr-22 00:59N 26°07' W 080°08'1 1.8
2018-Apr-22 00:30N 26°07' W 080°07'0 0.4
2018-Apr-22 00:00N 26°07' W 080°07'2 3.8
2018-Apr-21 23:30N 26°09' W 080°06'0 0.9
2018-Apr-21 23:00N 26°08' W 080°07'1 2.9
2018-Apr-21 22:30N 26°07' W 080°07'1 2.6
2018-Apr-21 22:00N 26°07' W 080°08'0 0.0
2018-Apr-21 21:30N 26°07' W 080°08'0 0.0
2018-Apr-21 21:00N 26°07' W 080°08'0 0.0
2018-Apr-21 20:30N 26°07' W 080°08'0 0.0
2018-Apr-21 20:00N 26°07' W 080°08'1 2.2
2018-Apr-21 19:30N 26°07' W 080°07'1 2.0
2018-Apr-21 19:00N 26°07' W 080°07'0 0.9
2018-Apr-21 18:30N 26°08' W 080°07'1 1.5
2018-Apr-21 18:00N 26°08' W 080°06'1 1.9
2018-Apr-21 17:30N 26°09' W 080°06'0 0.2
2018-Apr-21 17:00N 26°09' W 080°06'2 4.7
2018-Apr-21 16:30N 26°12' W 080°06'1 2.7
2018-Apr-21 16:00N 26°13' W 080°06'2 4.1
2018-Apr-21 15:30N 26°11' W 080°06'1 2.6
2018-Apr-21 15:00N 26°10' W 080°06'2 3.1
2018-Apr-21 14:30N 26°08' W 080°07'2 4.1
2018-Apr-21 14:00N 26°06' W 080°07'1 2.4
2018-Apr-21 13:28N 26°07' W 080°08'0 0.0
2018-Apr-20 02:10N 26°07' W 080°08'0 0.0
2018-Apr-20 02:00N 26°07' W 080°08'1 2.2
2018-Apr-20 01:30N 26°07' W 080°07'2 3.8
2018-Apr-20 01:00N 26°08' W 080°06'1 1.4
2018-Apr-20 00:30N 26°09' W 080°06'1 2.0
2018-Apr-20 00:00N 26°08' W 080°07'2 3.1
2018-Apr-19 23:30N 26°07' W 080°07'1 2.8
2018-Apr-19 23:00N 26°07' W 080°08'0 0.1
2018-Apr-19 22:30N 26°07' W 080°08'  
2018-Apr-16 02:00N 26°07' W 080°08'1 2.0
2018-Apr-16 01:30N 26°07' W 080°07'0 0.8
2018-Apr-16 01:00N 26°06' W 080°07'2 4.0
2018-Apr-16 00:30N 26°08' W 080°06'1 2.3
2018-Apr-16 00:00N 26°10' W 080°06'1 2.7
2018-Apr-15 23:30N 26°08' W 080°07'2 3.3
2018-Apr-15 23:00N 26°07' W 080°08'0 0.8
2018-Apr-15 22:30N 26°07' W 080°08'0 0.0
2018-Apr-15 22:00N 26°07' W 080°08'0 0.0
2018-Apr-15 21:30N 26°07' W 080°08'0 0.0
2018-Apr-15 21:00N 26°07' W 080°08'0 0.0
2018-Apr-15 20:30N 26°07' W 080°08'0 0.0
2018-Apr-15 20:00N 26°07' W 080°08'0 0.0
2018-Apr-15 19:30N 26°07' W 080°08'0 0.0
2018-Apr-15 19:00N 26°07' W 080°08'0 0.0
2018-Apr-15 18:30N 26°07' W 080°08'0 0.0
2018-Apr-15 18:00N 26°07' W 080°08'  
2018-Apr-13 01:58N 26°07' W 080°08'0 0.0
2018-Apr-13 01:30N 26°07' W 080°08'1 2.0
2018-Apr-13 01:00N 26°07' W 080°07'1 1.8
2018-Apr-13 00:30N 26°08' W 080°07'1 2.2
2018-Apr-13 00:00N 26°07' W 080°07'1 1.2
2018-Apr-12 23:31N 26°06' W 080°07'1 2.8
2018-Apr-12 23:00N 26°07' W 080°08'0 0.0
2018-Apr-12 22:30N 26°07' W 080°08'0 0.0
2018-Apr-12 22:00N 26°07' W 080°08'  
Track history (hours):
 
Tides and Currents Weather Stations Pressure Air Temp Water Temp Dewpoint Dewpoint Depression Visibility Wind Speed Wind Dir Waves Ship Positions

Musette

Owner: Carfi Enterprises, Wellington, FL. More information available from US FCC via Universal Licensing System and Coast Guard Vessel Documentation Center.

Last reported at 2018-Apr-22 00:59 UTC. Time now 2018-Apr-25 02:53 UTC.
Position N 26°07' W 080°08'.

; draft 2 m.

Type: Ship. MMSI: 366983050.

Date/timePositionNaut miles runAvg speedWind from/ knotsBaromVisibWave heightAir tempDewpointWater temp
2018-Apr-22 00:59N 26°07' W 080°08'1 1.8
2018-Apr-22 00:30N 26°07' W 080°07'0 0.4
2018-Apr-22 00:00N 26°07' W 080°07'2 3.8
2018-Apr-21 23:30N 26°09' W 080°06'0 0.9
2018-Apr-21 23:00N 26°08' W 080°07'1 2.9
2018-Apr-21 22:30N 26°07' W 080°07'1 2.6
2018-Apr-21 22:00N 26°07' W 080°08'0 0.0
2018-Apr-21 21:30N 26°07' W 080°08'0 0.0
2018-Apr-21 21:00N 26°07' W 080°08'0 0.0
2018-Apr-21 20:30N 26°07' W 080°08'0 0.0
2018-Apr-21 20:00N 26°07' W 080°08'1 2.2
2018-Apr-21 19:30N 26°07' W 080°07'1 2.0
2018-Apr-21 19:00N 26°07' W 080°07'0 0.9
2018-Apr-21 18:30N 26°08' W 080°07'1 1.5
2018-Apr-21 18:00N 26°08' W 080°06'1 1.9
2018-Apr-21 17:30N 26°09' W 080°06'0 0.2
2018-Apr-21 17:00N 26°09' W 080°06'2 4.7
2018-Apr-21 16:30N 26°12' W 080°06'1 2.7
2018-Apr-21 16:00N 26°13' W 080°06'2 4.1
2018-Apr-21 15:30N 26°11' W 080°06'1 2.6
2018-Apr-21 15:00N 26°10' W 080°06'2 3.1
2018-Apr-21 14:30N 26°08' W 080°07'2 4.1
2018-Apr-21 14:00N 26°06' W 080°07'1 2.4
2018-Apr-21 13:28N 26°07' W 080°08'0 0.0
2018-Apr-20 02:10N 26°07' W 080°08'0 0.0
2018-Apr-20 02:00N 26°07' W 080°08'1 2.2
2018-Apr-20 01:30N 26°07' W 080°07'2 3.8
2018-Apr-20 01:00N 26°08' W 080°06'1 1.4
2018-Apr-20 00:30N 26°09' W 080°06'1 2.0
2018-Apr-20 00:00N 26°08' W 080°07'2 3.1
2018-Apr-19 23:30N 26°07' W 080°07'1 2.8
2018-Apr-19 23:00N 26°07' W 080°08'0 0.1
2018-Apr-19 22:30N 26°07' W 080°08'  
2018-Apr-16 02:00N 26°07' W 080°08'1 2.0
2018-Apr-16 01:30N 26°07' W 080°07'0 0.8
2018-Apr-16 01:00N 26°06' W 080°07'2 4.0
2018-Apr-16 00:30N 26°08' W 080°06'1 2.3
2018-Apr-16 00:00N 26°10' W 080°06'1 2.7
2018-Apr-15 23:30N 26°08' W 080°07'2 3.3
2018-Apr-15 23:00N 26°07' W 080°08'0 0.8
2018-Apr-15 22:30N 26°07' W 080°08'0 0.0
2018-Apr-15 22:00N 26°07' W 080°08'0 0.0
2018-Apr-15 21:30N 26°07' W 080°08'0 0.0
2018-Apr-15 21:00N 26°07' W 080°08'0 0.0
2018-Apr-15 20:30N 26°07' W 080°08'0 0.0
2018-Apr-15 20:00N 26°07' W 080°08'0 0.0
2018-Apr-15 19:30N 26°07' W 080°08'0 0.0
2018-Apr-15 19:00N 26°07' W 080°08'0 0.0
2018-Apr-15 18:30N 26°07' W 080°08'0 0.0
2018-Apr-15 18:00N 26°07' W 080°08'  
2018-Apr-13 01:58N 26°07' W 080°08'0 0.0
2018-Apr-13 01:30N 26°07' W 080°08'1 2.0
2018-Apr-13 01:00N 26°07' W 080°07'1 1.8
2018-Apr-13 00:30N 26°08' W 080°07'1 2.2
2018-Apr-13 00:00N 26°07' W 080°07'1 1.2
2018-Apr-12 23:31N 26°06' W 080°07'1 2.8
2018-Apr-12 23:00N 26°07' W 080°08'0 0.0
2018-Apr-12 22:30N 26°07' W 080°08'0 0.0
2018-Apr-12 22:00N 26°07' W 080°08'  

Dump ship's entire track history